sensor_id;sensor_type;location;lat;lon;timestamp;pressure;altitude;pressure_sealevel;temperature;humidity
16793;BME280;8513;42.662;23.350;2023-02-03T00:01:21;95116.69;;;4.15;53.49
16793;BME280;8513;42.662;23.350;2023-02-03T00:03:47;95110.69;;;4.02;54.08
16793;BME280;8513;42.662;23.350;2023-02-03T00:06:13;95109.59;;;3.93;54.64
16793;BME280;8513;42.662;23.350;2023-02-03T00:08:39;95112.13;;;4.06;54.77
16793;BME280;8513;42.662;23.350;2023-02-03T00:11:05;95109.34;;;3.72;55.56
16793;BME280;8513;42.662;23.350;2023-02-03T00:13:31;95116.19;;;3.73;56.02
16793;BME280;8513;42.662;23.350;2023-02-03T00:15:57;95125.38;;;3.90;55.75
16793;BME280;8513;42.662;23.350;2023-02-03T00:18:22;95119.69;;;3.85;55.68
16793;BME280;8513;42.662;23.350;2023-02-03T00:20:47;95128.34;;;3.85;55.69
16793;BME280;8513;42.662;23.350;2023-02-03T00:23:13;95120.09;;;3.91;55.89
16793;BME280;8513;42.662;23.350;2023-02-03T00:26:13;95117.50;;;3.79;56.54
16793;BME280;8513;42.662;23.350;2023-02-03T00:28:39;95126.03;;;3.93;56.64
16793;BME280;8513;42.662;23.350;2023-02-03T00:31:05;95123.81;;;4.00;56.39
16793;BME280;8513;42.662;23.350;2023-02-03T00:33:30;95131.94;;;3.95;57.09
16793;BME280;8513;42.662;23.350;2023-02-03T00:35:58;95126.78;;;3.83;57.35
16793;BME280;8513;42.662;23.350;2023-02-03T00:38:26;95136.84;;;3.87;57.43
16793;BME280;8513;42.662;23.350;2023-02-03T00:40:53;95144.25;;;3.81;58.05
16793;BME280;8513;42.662;23.350;2023-02-03T00:43:20;95148.50;;;3.82;58.31
16793;BME280;8513;42.662;23.350;2023-02-03T00:45:45;95149.97;;;3.86;57.69
16793;BME280;8513;42.662;23.350;2023-02-03T00:48:10;95150.00;;;3.73;58.30
16793;BME280;8513;42.662;23.350;2023-02-03T00:50:36;95159.03;;;3.80;58.44
16793;BME280;8513;42.662;23.350;2023-02-03T00:53:02;95147.38;;;3.73;58.80
16793;BME280;8513;42.662;23.350;2023-02-03T00:55:27;95149.16;;;3.85;58.69
16793;BME280;8513;42.662;23.350;2023-02-03T00:57:52;95156.44;;;3.80;58.71
16793;BME280;8513;42.662;23.350;2023-02-03T01:00:18;95161.19;;;3.86;58.18
16793;BME280;8513;42.662;23.350;2023-02-03T01:02:44;95163.84;;;3.61;59.08
16793;BME280;8513;42.662;23.350;2023-02-03T01:05:10;95156.53;;;3.66;58.70
16793;BME280;8513;42.662;23.350;2023-02-03T01:07:35;95172.75;;;3.82;58.46
16793;BME280;8513;42.662;23.350;2023-02-03T01:10:00;95173.00;;;3.53;59.80
16793;BME280;8513;42.662;23.350;2023-02-03T01:12:28;95177.16;;;3.43;61.25
16793;BME280;8513;42.662;23.350;2023-02-03T01:14:54;95169.56;;;3.66;60.39
16793;BME280;8513;42.662;23.350;2023-02-03T01:17:19;95173.00;;;3.66;60.68
16793;BME280;8513;42.662;23.350;2023-02-03T01:19:45;95155.94;;;3.75;60.30
16793;BME280;8513;42.662;23.350;2023-02-03T01:22:10;95162.03;;;3.74;59.70
16793;BME280;8513;42.662;23.350;2023-02-03T01:24:35;95168.81;;;3.76;59.57
16793;BME280;8513;42.662;23.350;2023-02-03T01:27:01;95161.63;;;3.80;59.07
16793;BME280;8513;42.662;23.350;2023-02-03T01:29:26;95156.47;;;3.67;59.64
16793;BME280;8513;42.662;23.350;2023-02-03T01:31:52;95154.16;;;3.63;59.41
16793;BME280;8513;42.662;23.350;2023-02-03T01:34:17;95151.47;;;3.39;59.65
16793;BME280;8513;42.662;23.350;2023-02-03T01:36:43;95164.38;;;3.53;58.51
16793;BME280;8513;42.662;23.350;2023-02-03T01:39:09;95153.25;;;3.51;58.96
16793;BME280;8513;42.662;23.350;2023-02-03T01:41:36;95163.44;;;3.41;58.60
16793;BME280;8513;42.662;23.350;2023-02-03T01:47:28;95178.50;;;3.49;58.19
16793;BME280;8513;42.662;23.350;2023-02-03T01:50:15;95178.13;;;3.42;58.31
16793;BME280;8513;42.662;23.350;2023-02-03T01:52:43;95187.25;;;3.35;58.27
16793;BME280;8513;42.662;23.350;2023-02-03T01:55:12;95180.06;;;3.26;58.68
16793;BME280;8513;42.662;23.350;2023-02-03T01:57:45;95177.38;;;3.27;58.60
16793;BME280;8513;42.662;23.350;2023-02-03T02:00:12;95182.97;;;3.34;58.50
16793;BME280;8513;42.662;23.350;2023-02-03T02:02:38;95176.31;;;3.17;58.69
16793;BME280;8513;42.662;23.350;2023-02-03T02:05:10;95181.22;;;3.22;58.76
16793;BME280;8513;42.662;23.350;2023-02-03T02:07:38;95185.09;;;3.29;58.16
16793;BME280;8513;42.662;23.350;2023-02-03T02:10:05;95187.97;;;3.24;58.06
16793;BME280;8513;42.662;23.350;2023-02-03T02:12:31;95196.28;;;3.17;58.46
16793;BME280;8513;42.662;23.350;2023-02-03T02:14:56;95194.09;;;2.98;58.92
16793;BME280;8513;42.662;23.350;2023-02-03T02:17:50;95189.97;;;3.21;58.12
16793;BME280;8513;42.662;23.350;2023-02-03T02:20:32;95201.91;;;3.11;58.49
16793;BME280;8513;42.662;23.350;2023-02-03T02:31:27;95203.69;;;2.83;59.06
16793;BME280;8513;42.662;23.350;2023-02-03T02:34:07;95205.59;;;2.94;58.89
16793;BME280;8513;42.662;23.350;2023-02-03T02:44:44;95220.78;;;3.13;58.18
16793;BME280;8513;42.662;23.350;2023-02-03T02:47:19;95213.72;;;3.02;58.26
16793;BME280;8513;42.662;23.350;2023-02-03T02:52:21;95211.44;;;3.10;58.11
16793;BME280;8513;42.662;23.350;2023-02-03T02:54:51;95215.22;;;3.31;57.10
16793;BME280;8513;42.662;23.350;2023-02-03T02:57:19;95213.63;;;3.03;57.13
16793;BME280;8513;42.662;23.350;2023-02-03T02:59:46;95210.41;;;3.13;57.08
16793;BME280;8513;42.662;23.350;2023-02-03T03:02:12;95210.84;;;3.19;56.89
16793;BME280;8513;42.662;23.350;2023-02-03T03:04:38;95210.59;;;3.09;56.77
16793;BME280;8513;42.662;23.350;2023-02-03T03:07:11;95205.22;;;3.13;56.57
16793;BME280;8513;42.662;23.350;2023-02-03T03:12:18;95228.59;;;3.13;56.04
16793;BME280;8513;42.662;23.350;2023-02-03T03:14:58;95229.22;;;3.03;56.27
16793;BME280;8513;42.662;23.350;2023-02-03T03:17:29;95226.16;;;2.84;56.87
16793;BME280;8513;42.662;23.350;2023-02-03T03:20:00;95227.06;;;2.83;56.43
16793;BME280;8513;42.662;23.350;2023-02-03T03:22:31;95230.47;;;3.11;55.40
16793;BME280;8513;42.662;23.350;2023-02-03T03:25:05;95244.66;;;2.92;55.86
16793;BME280;8513;42.662;23.350;2023-02-03T03:27:37;95232.06;;;2.86;55.51
16793;BME280;8513;42.662;23.350;2023-02-03T03:30:05;95235.13;;;2.65;56.01
16793;BME280;8513;42.662;23.350;2023-02-03T03:32:32;95228.00;;;2.82;55.45
16793;BME280;8513;42.662;23.350;2023-02-03T03:34:59;95227.53;;;2.90;55.24
16793;BME280;8513;42.662;23.350;2023-02-03T03:39:56;95255.63;;;2.83;54.89
16793;BME280;8513;42.662;23.350;2023-02-03T03:45:17;95246.00;;;2.58;55.45
16793;BME280;8513;42.662;23.350;2023-02-03T03:47:59;95253.09;;;2.69;55.37
16793;BME280;8513;42.662;23.350;2023-02-03T03:50:31;95246.50;;;2.50;55.98
16793;BME280;8513;42.662;23.350;2023-02-03T03:53:00;95238.75;;;2.21;56.77
16793;BME280;8513;42.662;23.350;2023-02-03T03:55:28;95238.41;;;2.55;56.10
16793;BME280;8513;42.662;23.350;2023-02-03T03:58:02;95239.97;;;2.57;56.27
16793;BME280;8513;42.662;23.350;2023-02-03T04:00:31;95233.03;;;2.58;55.73
16793;BME280;8513;42.662;23.350;2023-02-03T04:03:01;95237.09;;;2.62;56.00
16793;BME280;8513;42.662;23.350;2023-02-03T04:05:29;95246.81;;;2.58;55.94
16793;BME280;8513;42.662;23.350;2023-02-03T04:07:56;95261.66;;;2.56;55.89
16793;BME280;8513;42.662;23.350;2023-02-03T04:10:30;95253.78;;;2.31;56.70
16793;BME280;8513;42.662;23.350;2023-02-03T04:12:56;95257.25;;;2.44;56.49
16793;BME280;8513;42.662;23.350;2023-02-03T04:15:22;95255.66;;;2.56;56.40
16793;BME280;8513;42.662;23.350;2023-02-03T04:17:47;95260.34;;;2.63;56.09
16793;BME280;8513;42.662;23.350;2023-02-03T04:20:13;95263.50;;;2.69;56.36
16793;BME280;8513;42.662;23.350;2023-02-03T04:22:39;95273.97;;;2.67;56.09
16793;BME280;8513;42.662;23.350;2023-02-03T04:25:05;95281.06;;;2.78;55.95
16793;BME280;8513;42.662;23.350;2023-02-03T04:27:30;95293.47;;;2.87;55.67
16793;BME280;8513;42.662;23.350;2023-02-03T04:29:56;95294.25;;;2.75;56.20
16793;BME280;8513;42.662;23.350;2023-02-03T04:32:21;95305.53;;;2.88;55.62
16793;BME280;8513;42.662;23.350;2023-02-03T04:34:47;95298.88;;;2.84;55.19
16793;BME280;8513;42.662;23.350;2023-02-03T04:37:12;95305.94;;;2.82;55.79
16793;BME280;8513;42.662;23.350;2023-02-03T04:39:37;95306.34;;;2.88;55.54
16793;BME280;8513;42.662;23.350;2023-02-03T04:42:03;95322.81;;;3.02;55.39
16793;BME280;8513;42.662;23.350;2023-02-03T04:44:28;95312.53;;;3.00;55.44
16793;BME280;8513;42.662;23.350;2023-02-03T04:46:54;95312.28;;;2.91;55.51
16793;BME280;8513;42.662;23.350;2023-02-03T04:49:19;95320.22;;;3.02;55.22
16793;BME280;8513;42.662;23.350;2023-02-03T04:51:47;95322.81;;;3.02;54.96
16793;BME280;8513;42.662;23.350;2023-02-03T04:54:13;95323.28;;;3.08;55.18
16793;BME280;8513;42.662;23.350;2023-02-03T04:56:38;95318.78;;;2.98;55.34
16793;BME280;8513;42.662;23.350;2023-02-03T04:59:04;95327.19;;;3.01;55.08
16793;BME280;8513;42.662;23.350;2023-02-03T05:01:29;95325.34;;;3.03;54.82
16793;BME280;8513;42.662;23.350;2023-02-03T05:03:55;95336.31;;;2.94;55.17
16793;BME280;8513;42.662;23.350;2023-02-03T05:06:24;95341.34;;;3.10;54.88
16793;BME280;8513;42.662;23.350;2023-02-03T05:08:51;95338.88;;;3.08;54.66
16793;BME280;8513;42.662;23.350;2023-02-03T05:11:16;95346.19;;;2.75;55.90
16793;BME280;8513;42.662;23.350;2023-02-03T05:13:42;95341.31;;;2.97;55.01
16793;BME280;8513;42.662;23.350;2023-02-03T05:16:07;95346.66;;;3.08;54.86
16793;BME280;8513;42.662;23.350;2023-02-03T05:18:32;95343.84;;;3.12;54.77
16793;BME280;8513;42.662;23.350;2023-02-03T05:20:58;95347.41;;;3.11;54.71
16793;BME280;8513;42.662;23.350;2023-02-03T05:23:23;95364.16;;;2.92;55.35
16793;BME280;8513;42.662;23.350;2023-02-03T05:25:49;95352.53;;;2.98;55.13
16793;BME280;8513;42.662;23.350;2023-02-03T05:28:14;95360.41;;;2.96;55.18
16793;BME280;8513;42.662;23.350;2023-02-03T05:30:40;95361.63;;;2.91;55.39
16793;BME280;8513;42.662;23.350;2023-02-03T05:33:05;95359.72;;;2.80;55.80
16793;BME280;8513;42.662;23.350;2023-02-03T05:35:31;95354.44;;;2.67;56.36
16793;BME280;8513;42.662;23.350;2023-02-03T05:37:56;95357.16;;;2.65;56.11
16793;BME280;8513;42.662;23.350;2023-02-03T05:40:23;95362.72;;;2.74;55.97
16793;BME280;8513;42.662;23.350;2023-02-03T05:43:07;95357.72;;;2.71;55.82
16793;BME280;8513;42.662;23.350;2023-02-03T05:45:33;95356.69;;;2.59;56.17
16793;BME280;8513;42.662;23.350;2023-02-03T05:47:58;95364.09;;;2.79;55.83
16793;BME280;8513;42.662;23.350;2023-02-03T05:50:23;95369.78;;;2.57;56.34
16793;BME280;8513;42.662;23.350;2023-02-03T05:52:50;95377.84;;;2.53;56.38
16793;BME280;8513;42.662;23.350;2023-02-03T05:55:16;95374.19;;;2.70;55.73
16793;BME280;8513;42.662;23.350;2023-02-03T05:57:41;95378.88;;;2.50;56.29
16793;BME280;8513;42.662;23.350;2023-02-03T06:00:07;95378.13;;;2.62;56.23
16793;BME280;8513;42.662;23.350;2023-02-03T06:02:33;95378.94;;;2.63;55.85
16793;BME280;8513;42.662;23.350;2023-02-03T06:04:59;95382.59;;;2.46;56.63
16793;BME280;8513;42.662;23.350;2023-02-03T06:07:24;95387.84;;;2.59;56.42
16793;BME280;8513;42.662;23.350;2023-02-03T06:09:49;95386.09;;;2.45;56.53
16793;BME280;8513;42.662;23.350;2023-02-03T06:12:15;95379.22;;;2.58;56.04
16793;BME280;8513;42.662;23.350;2023-02-03T06:14:40;95387.59;;;2.06;57.57
16793;BME280;8513;42.662;23.350;2023-02-03T06:17:06;95391.28;;;2.16;57.46
16793;BME280;8513;42.662;23.350;2023-02-03T06:19:31;95397.16;;;2.49;56.33
16793;BME280;8513;42.662;23.350;2023-02-03T06:21:57;95390.09;;;2.36;56.52
16793;BME280;8513;42.662;23.350;2023-02-03T06:24:22;95385.34;;;2.57;56.00
16793;BME280;8513;42.662;23.350;2023-02-03T06:26:47;95397.50;;;2.57;55.76
16793;BME280;8513;42.662;23.350;2023-02-03T06:29:13;95401.69;;;2.31;56.07
16793;BME280;8513;42.662;23.350;2023-02-03T06:31:38;95407.16;;;2.55;55.43
16793;BME280;8513;42.662;23.350;2023-02-03T06:34:04;95402.59;;;2.73;54.87
16793;BME280;8513;42.662;23.350;2023-02-03T06:36:29;95408.78;;;2.84;54.48
16793;BME280;8513;42.662;23.350;2023-02-03T06:38:54;95421.84;;;2.97;53.88
16793;BME280;8513;42.662;23.350;2023-02-03T06:41:20;95412.59;;;2.79;54.40
16793;BME280;8513;42.662;23.350;2023-02-03T06:43:51;95417.13;;;2.75;54.03
16793;BME280;8513;42.662;23.350;2023-02-03T06:46:17;95417.97;;;2.90;53.96
16793;BME280;8513;42.662;23.350;2023-02-03T06:48:42;95428.16;;;2.93;53.35
16793;BME280;8513;42.662;23.350;2023-02-03T06:51:07;95424.75;;;3.20;52.58
16793;BME280;8513;42.662;23.350;2023-02-03T06:53:33;95418.78;;;3.32;52.32
16793;BME280;8513;42.662;23.350;2023-02-03T06:55:58;95427.63;;;3.29;51.90
16793;BME280;8513;42.662;23.350;2023-02-03T06:58:26;95415.78;;;3.38;51.32
16793;BME280;8513;42.662;23.350;2023-02-03T07:00:55;95414.41;;;3.33;51.53
16793;BME280;8513;42.662;23.350;2023-02-03T07:03:20;95424.63;;;3.36;51.18
16793;BME280;8513;42.662;23.350;2023-02-03T07:05:46;95421.03;;;3.24;51.67
16793;BME280;8513;42.662;23.350;2023-02-03T07:08:11;95404.91;;;3.19;52.00
16793;BME280;8513;42.662;23.350;2023-02-03T07:10:36;95410.00;;;3.20;52.22
16793;BME280;8513;42.662;23.350;2023-02-03T07:13:04;95398.81;;;3.33;51.57
16793;BME280;8513;42.662;23.350;2023-02-03T07:15:29;95399.22;;;3.53;51.17
16793;BME280;8513;42.662;23.350;2023-02-03T07:17:55;95381.13;;;3.65;50.60
16793;BME280;8513;42.662;23.350;2023-02-03T07:20:22;95399.94;;;3.56;50.34
16793;BME280;8513;42.662;23.350;2023-02-03T07:22:55;95397.44;;;3.54;50.51
16793;BME280;8513;42.662;23.350;2023-02-03T07:25:22;95404.06;;;3.45;50.87
16793;BME280;8513;42.662;23.350;2023-02-03T07:27:48;95387.41;;;3.35;50.89
16793;BME280;8513;42.662;23.350;2023-02-03T07:30:14;95398.06;;;3.58;50.64
16793;BME280;8513;42.662;23.350;2023-02-03T07:32:40;95409.69;;;3.52;49.70
16793;BME280;8513;42.662;23.350;2023-02-03T07:35:05;95407.44;;;3.60;49.41
16793;BME280;8513;42.662;23.350;2023-02-03T07:37:30;95405.78;;;3.32;50.83
16793;BME280;8513;42.662;23.350;2023-02-03T07:39:56;95411.13;;;3.43;50.52
16793;BME280;8513;42.662;23.350;2023-02-03T07:42:22;95418.19;;;3.41;50.26
16793;BME280;8513;42.662;23.350;2023-02-03T07:44:47;95411.13;;;3.43;50.37
16793;BME280;8513;42.662;23.350;2023-02-03T07:47:12;95411.72;;;3.61;49.46
16793;BME280;8513;42.662;23.350;2023-02-03T07:49:38;95424.97;;;3.44;50.17
16793;BME280;8513;42.662;23.350;2023-02-03T07:52:03;95426.78;;;3.56;50.31
16793;BME280;8513;42.662;23.350;2023-02-03T07:54:29;95422.66;;;3.66;49.92
16793;BME280;8513;42.662;23.350;2023-02-03T07:56:54;95422.34;;;3.71;49.84
16793;BME280;8513;42.662;23.350;2023-02-03T07:59:20;95425.41;;;3.50;50.41
16793;BME280;8513;42.662;23.350;2023-02-03T08:01:46;95429.06;;;3.88;49.16
16793;BME280;8513;42.662;23.350;2023-02-03T08:04:11;95424.41;;;3.66;49.65
16793;BME280;8513;42.662;23.350;2023-02-03T08:06:41;95436.75;;;3.89;49.45
16793;BME280;8513;42.662;23.350;2023-02-03T08:09:07;95439.38;;;4.02;48.84
16793;BME280;8513;42.662;23.350;2023-02-03T08:11:32;95441.25;;;4.00;48.81
16793;BME280;8513;42.662;23.350;2023-02-03T08:13:57;95446.88;;;4.19;48.75
16793;BME280;8513;42.662;23.350;2023-02-03T08:16:23;95443.75;;;4.27;48.58
16793;BME280;8513;42.662;23.350;2023-02-03T08:18:48;95458.97;;;4.46;48.19
16793;BME280;8513;42.662;23.350;2023-02-03T08:21:14;95463.66;;;4.15;48.72
16793;BME280;8513;42.662;23.350;2023-02-03T08:23:39;95473.00;;;4.05;48.89
16793;BME280;8513;42.662;23.350;2023-02-03T08:26:04;95456.63;;;3.90;49.19
16793;BME280;8513;42.662;23.350;2023-02-03T08:28:30;95475.41;;;4.21;48.60
16793;BME280;8513;42.662;23.350;2023-02-03T08:30:56;95458.09;;;3.94;49.08
16793;BME280;8513;42.662;23.350;2023-02-03T08:33:22;95467.53;;;4.23;48.14
16793;BME280;8513;42.662;23.350;2023-02-03T08:35:48;95466.84;;;3.93;48.59
16793;BME280;8513;42.662;23.350;2023-02-03T08:38:14;95482.88;;;4.00;47.94
16793;BME280;8513;42.662;23.350;2023-02-03T08:40:39;95466.50;;;4.25;47.12
16793;BME280;8513;42.662;23.350;2023-02-03T08:43:05;95469.59;;;4.17;47.20
16793;BME280;8513;42.662;23.350;2023-02-03T08:45:30;95468.56;;;4.20;47.66
16793;BME280;8513;42.662;23.350;2023-02-03T08:47:56;95470.25;;;4.47;46.63
16793;BME280;8513;42.662;23.350;2023-02-03T08:50:21;95480.22;;;4.14;46.74
16793;BME280;8513;42.662;23.350;2023-02-03T08:52:47;95479.28;;;4.15;47.76
16793;BME280;8513;42.662;23.350;2023-02-03T08:55:12;95486.16;;;4.68;46.59
16793;BME280;8513;42.662;23.350;2023-02-03T08:57:38;95483.91;;;4.63;47.02
16793;BME280;8513;42.662;23.350;2023-02-03T09:00:06;95491.47;;;4.40;47.36
16793;BME280;8513;42.662;23.350;2023-02-03T09:02:32;95506.28;;;4.91;46.80
16793;BME280;8513;42.662;23.350;2023-02-03T09:04:57;95485.25;;;4.81;46.58
16793;BME280;8513;42.662;23.350;2023-02-03T09:07:23;95486.47;;;5.14;46.81
16793;BME280;8513;42.662;23.350;2023-02-03T09:09:48;95489.28;;;5.11;45.94
16793;BME280;8513;42.662;23.350;2023-02-03T09:12:14;95488.38;;;4.61;47.04
16793;BME280;8513;42.662;23.350;2023-02-03T09:14:39;95490.66;;;4.78;47.20
16793;BME280;8513;42.662;23.350;2023-02-03T09:17:05;95484.00;;;4.87;46.85
16793;BME280;8513;42.662;23.350;2023-02-03T09:19:34;95471.75;;;5.13;47.00
16793;BME280;8513;42.662;23.350;2023-02-03T09:21:59;95494.78;;;5.19;46.83
16793;BME280;8513;42.662;23.350;2023-02-03T09:24:25;95474.78;;;4.94;46.42
16793;BME280;8513;42.662;23.350;2023-02-03T09:26:51;95458.63;;;5.15;46.54
16793;BME280;8513;42.662;23.350;2023-02-03T09:29:17;95466.53;;;5.13;46.64
16793;BME280;8513;42.662;23.350;2023-02-03T09:31:43;95477.16;;;5.23;46.50
16793;BME280;8513;42.662;23.350;2023-02-03T09:34:11;95461.03;;;5.42;46.34
16793;BME280;8513;42.662;23.350;2023-02-03T09:36:36;95475.75;;;5.43;45.81
16793;BME280;8513;42.662;23.350;2023-02-03T09:39:02;95467.13;;;5.29;44.97
16793;BME280;8513;42.662;23.350;2023-02-03T09:46:54;95477.75;;;4.90;45.37
16793;BME280;8513;42.662;23.350;2023-02-03T09:49:24;95456.06;;;4.76;45.53
16793;BME280;8513;42.662;23.350;2023-02-03T09:52:24;95475.75;;;5.06;44.26
16793;BME280;8513;42.662;23.350;2023-02-03T09:57:41;95476.88;;;5.02;44.04
16793;BME280;8513;42.662;23.350;2023-02-03T10:00:34;95473.13;;;5.06;43.31
16793;BME280;8513;42.662;23.350;2023-02-03T10:06:22;95446.84;;;5.09;44.48
16793;BME280;8513;42.662;23.350;2023-02-03T10:15:02;95450.94;;;5.37;41.95
16793;BME280;8513;42.662;23.350;2023-02-03T10:17:39;95442.34;;;5.48;41.85
16793;BME280;8513;42.662;23.350;2023-02-03T10:20:10;95455.97;;;5.27;42.33
16793;BME280;8513;42.662;23.350;2023-02-03T10:22:59;95443.53;;;4.94;43.15
16793;BME280;8513;42.662;23.350;2023-02-03T10:25:30;95452.50;;;4.90;43.58
16793;BME280;8513;42.662;23.350;2023-02-03T10:27:59;95447.19;;;4.92;43.77
16793;BME280;8513;42.662;23.350;2023-02-03T10:30:30;95445.09;;;4.97;43.62
16793;BME280;8513;42.662;23.350;2023-02-03T10:33:09;95437.53;;;5.18;43.61
16793;BME280;8513;42.662;23.350;2023-02-03T10:36:01;95435.75;;;5.18;43.49
16793;BME280;8513;42.662;23.350;2023-02-03T10:41:06;95426.63;;;5.61;41.90
16793;BME280;8513;42.662;23.350;2023-02-03T10:43:33;95422.41;;;5.47;40.95
16793;BME280;8513;42.662;23.350;2023-02-03T10:46:32;95420.47;;;5.86;40.42
16793;BME280;8513;42.662;23.350;2023-02-03T10:48:59;95419.81;;;5.95;40.18
16793;BME280;8513;42.662;23.350;2023-02-03T10:51:35;95417.03;;;5.61;41.13
16793;BME280;8513;42.662;23.350;2023-02-03T10:54:01;95416.16;;;5.73;41.66
16793;BME280;8513;42.662;23.350;2023-02-03T10:56:34;95416.41;;;5.82;40.27
16793;BME280;8513;42.662;23.350;2023-02-03T10:59:00;95416.66;;;5.55;39.73
16793;BME280;8513;42.662;23.350;2023-02-03T11:01:46;95422.81;;;5.29;40.54
16793;BME280;8513;42.662;23.350;2023-02-03T11:04:30;95424.41;;;5.19;39.42
16793;BME280;8513;42.662;23.350;2023-02-03T11:06:57;95422.03;;;5.16;38.31
16793;BME280;8513;42.662;23.350;2023-02-03T11:09:40;95424.28;;;5.21;38.66
16793;BME280;8513;42.662;23.350;2023-02-03T11:12:17;95440.38;;;5.02;38.84
16793;BME280;8513;42.662;23.350;2023-02-03T11:14:50;95434.53;;;5.24;39.43
16793;BME280;8513;42.662;23.350;2023-02-03T11:17:24;95428.66;;;5.57;38.35
16793;BME280;8513;42.662;23.350;2023-02-03T11:19:52;95418.16;;;5.94;37.84
16793;BME280;8513;42.662;23.350;2023-02-03T11:22:30;95429.34;;;6.07;37.57
16793;BME280;8513;42.662;23.350;2023-02-03T11:24:57;95399.94;;;5.81;37.29
16793;BME280;8513;42.662;23.350;2023-02-03T11:27:23;95416.63;;;5.79;36.95
16793;BME280;8513;42.662;23.350;2023-02-03T11:30:13;95399.19;;;5.44;37.47
16793;BME280;8513;42.662;23.350;2023-02-03T11:32:41;95412.59;;;5.50;37.35
16793;BME280;8513;42.662;23.350;2023-02-03T11:35:27;95397.16;;;5.23;37.74
16793;BME280;8513;42.662;23.350;2023-02-03T11:37:55;95400.38;;;5.75;37.47
16793;BME280;8513;42.662;23.350;2023-02-03T11:47:50;95376.34;;;6.97;35.80
16793;BME280;8513;42.662;23.350;2023-02-03T12:02:05;95376.09;;;7.11;33.88
16793;BME280;8513;42.662;23.350;2023-02-03T12:10:08;95358.06;;;7.93;31.48
16793;BME280;8513;42.662;23.350;2023-02-03T12:15:23;95371.97;;;8.15;30.03
16793;BME280;8513;42.662;23.350;2023-02-03T12:34:22;95379.13;;;8.55;29.04
16793;BME280;8513;42.662;23.350;2023-02-03T12:37:20;95375.97;;;9.32;28.26
16793;BME280;8513;42.662;23.350;2023-02-03T12:39:53;95373.88;;;10.90;25.98
16793;BME280;8513;42.662;23.350;2023-02-03T12:44:59;95372.13;;;9.56;27.15
16793;BME280;8513;42.662;23.350;2023-02-03T12:47:39;95371.00;;;8.58;28.23
16793;BME280;8513;42.662;23.350;2023-02-03T12:58:25;95349.34;;;9.95;27.83
16793;BME280;8513;42.662;23.350;2023-02-03T13:00:59;95345.31;;;10.30;27.51
16793;BME280;8513;42.662;23.350;2023-02-03T13:03:47;95339.38;;;9.50;28.05
16793;BME280;8513;42.662;23.350;2023-02-03T13:06:32;95341.50;;;10.89;26.42
16793;BME280;8513;42.662;23.350;2023-02-03T13:12:27;95343.47;;;13.51;23.82
16793;BME280;8513;42.662;23.350;2023-02-03T13:15:04;95355.19;;;12.02;25.35
16793;BME280;8513;42.662;23.350;2023-02-03T13:17:44;95356.94;;;11.02;27.13
16793;BME280;8513;42.662;23.350;2023-02-03T13:20:29;95358.00;;;10.44;28.15
16793;BME280;8513;42.662;23.350;2023-02-03T13:22:56;95345.88;;;9.56;29.58
16793;BME280;8513;42.662;23.350;2023-02-03T13:41:47;95350.56;;;11.50;27.69
16793;BME280;8513;42.662;23.350;2023-02-03T13:44:17;95349.72;;;11.32;27.63
16793;BME280;8513;42.662;23.350;2023-02-03T13:46:47;95342.59;;;13.34;25.21
16793;BME280;8513;42.662;23.350;2023-02-03T13:49:39;95340.00;;;13.51;24.18
16793;BME280;8513;42.662;23.350;2023-02-03T13:54:55;95351.13;;;9.75;28.97
16793;BME280;8513;42.662;23.350;2023-02-03T13:57:34;95359.16;;;8.94;30.51
16793;BME280;8513;42.662;23.350;2023-02-03T14:00:04;95350.19;;;8.56;31.49
16793;BME280;8513;42.662;23.350;2023-02-03T14:02:41;95352.44;;;7.98;32.65
16793;BME280;8513;42.662;23.350;2023-02-03T14:05:37;95352.53;;;7.55;33.76
16793;BME280;8513;42.662;23.350;2023-02-03T14:32:21;95326.53;;;5.86;38.38
16793;BME280;8513;42.662;23.350;2023-02-03T14:34:48;95335.25;;;5.73;38.27
16793;BME280;8513;42.662;23.350;2023-02-03T14:37:20;95337.50;;;6.02;37.75
16793;BME280;8513;42.662;23.350;2023-02-03T14:48:10;95343.59;;;5.90;37.10
16793;BME280;8513;42.662;23.350;2023-02-03T14:50:55;95339.50;;;5.63;36.43
16793;BME280;8513;42.662;23.350;2023-02-03T14:56:26;95326.00;;;5.69;36.01
16793;BME280;8513;42.662;23.350;2023-02-03T14:59:01;95331.34;;;5.79;35.24
16793;BME280;8513;42.662;23.350;2023-02-03T15:06:40;95318.50;;;5.53;36.31
16793;BME280;8513;42.662;23.350;2023-02-03T15:11:50;95304.94;;;5.48;37.01
16793;BME280;8513;42.662;23.350;2023-02-03T15:14:26;95304.03;;;5.61;36.83
16793;BME280;8513;42.662;23.350;2023-02-03T15:17:00;95298.47;;;5.65;36.81
16793;BME280;8513;42.662;23.350;2023-02-03T15:19:36;95295.72;;;5.56;36.81
16793;BME280;8513;42.662;23.350;2023-02-03T15:22:36;95288.50;;;5.59;36.88
16793;BME280;8513;42.662;23.350;2023-02-03T15:25:02;95285.41;;;5.54;37.52
16793;BME280;8513;42.662;23.350;2023-02-03T15:27:31;95281.59;;;5.58;36.91
16793;BME280;8513;42.662;23.350;2023-02-03T15:29:57;95267.78;;;5.34;37.57
16793;BME280;8513;42.662;23.350;2023-02-03T15:32:39;95260.63;;;5.48;37.04
16793;BME280;8513;42.662;23.350;2023-02-03T15:35:12;95272.75;;;5.01;37.76
16793;BME280;8513;42.662;23.350;2023-02-03T15:37:50;95265.53;;;5.05;37.48
16793;BME280;8513;42.662;23.350;2023-02-03T15:40:19;95262.78;;;4.95;37.42
16793;BME280;8513;42.662;23.350;2023-02-03T15:42:56;95260.91;;;4.97;37.53
16793;BME280;8513;42.662;23.350;2023-02-03T15:45:39;95247.81;;;4.62;37.42
16793;BME280;8513;42.662;23.350;2023-02-03T15:51:05;95244.16;;;4.89;37.04
16793;BME280;8513;42.662;23.350;2023-02-03T15:53:35;95253.34;;;4.33;37.96
16793;BME280;8513;42.662;23.350;2023-02-03T15:56:05;95242.75;;;4.48;37.95
16793;BME280;8513;42.662;23.350;2023-02-03T15:58:44;95252.56;;;4.44;38.95
16793;BME280;8513;42.662;23.350;2023-02-03T16:01:12;95241.22;;;4.45;38.04
16793;BME280;8513;42.662;23.350;2023-02-03T16:03:45;95237.88;;;4.43;37.99
16793;BME280;8513;42.662;23.350;2023-02-03T16:08:43;95241.38;;;4.31;38.38
16793;BME280;8513;42.662;23.350;2023-02-03T16:11:24;95233.44;;;4.32;38.23
16793;BME280;8513;42.662;23.350;2023-02-03T16:13:51;95237.34;;;4.51;38.43
16793;BME280;8513;42.662;23.350;2023-02-03T16:16:27;95234.28;;;4.57;38.23
16793;BME280;8513;42.662;23.350;2023-02-03T16:18:59;95230.03;;;4.56;37.95